sensor_id;sensor_type;location;lat;lon;timestamp;P1;durP1;ratioP1;P2;durP2;ratioP2
59512;SDS011;45330;51.634;5.562;2023-09-08T00:02:03;21.35;;;11.57;;
59512;SDS011;45330;51.634;5.562;2023-09-08T00:04:28;19.65;;;11.10;;
59512;SDS011;45330;51.634;5.562;2023-09-08T00:06:54;21.70;;;11.07;;
59512;SDS011;45330;51.634;5.562;2023-09-08T00:09:19;20.73;;;11.35;;
59512;SDS011;45330;51.634;5.562;2023-09-08T00:11:45;21.42;;;11.52;;
59512;SDS011;45330;51.634;5.562;2023-09-08T00:14:10;20.40;;;11.95;;
59512;SDS011;45330;51.634;5.562;2023-09-08T00:16:35;19.75;;;11.57;;
59512;SDS011;45330;51.634;5.562;2023-09-08T00:19:02;21.20;;;11.75;;
59512;SDS011;45330;51.634;5.562;2023-09-08T00:21:27;20.23;;;11.90;;
59512;SDS011;45330;51.634;5.562;2023-09-08T00:23:53;21.63;;;12.00;;
59512;SDS011;45330;51.634;5.562;2023-09-08T00:26:18;21.58;;;11.85;;
59512;SDS011;45330;51.634;5.562;2023-09-08T00:28:44;21.13;;;12.20;;
59512;SDS011;45330;51.634;5.562;2023-09-08T00:31:10;21.77;;;11.82;;
59512;SDS011;45330;51.634;5.562;2023-09-08T00:33:35;21.45;;;11.80;;
59512;SDS011;45330;51.634;5.562;2023-09-08T00:36:00;21.73;;;12.63;;
59512;SDS011;45330;51.634;5.562;2023-09-08T00:38:26;20.90;;;11.57;;
59512;SDS011;45330;51.634;5.562;2023-09-08T00:40:51;21.40;;;12.00;;
59512;SDS011;45330;51.634;5.562;2023-09-08T00:43:17;21.45;;;12.00;;
59512;SDS011;45330;51.634;5.562;2023-09-08T00:45:43;21.83;;;12.02;;
59512;SDS011;45330;51.634;5.562;2023-09-08T00:48:09;22.95;;;13.15;;
59512;SDS011;45330;51.634;5.562;2023-09-08T00:50:35;21.75;;;11.85;;
59512;SDS011;45330;51.634;5.562;2023-09-08T00:53:02;22.23;;;13.18;;
59512;SDS011;45330;51.634;5.562;2023-09-08T00:55:28;21.73;;;11.88;;
59512;SDS011;45330;51.634;5.562;2023-09-08T00:57:53;22.20;;;12.38;;
59512;SDS011;45330;51.634;5.562;2023-09-08T01:00:19;22.42;;;12.27;;
59512;SDS011;45330;51.634;5.562;2023-09-08T01:02:44;21.38;;;12.57;;
59512;SDS011;45330;51.634;5.562;2023-09-08T01:05:10;20.58;;;12.55;;
59512;SDS011;45330;51.634;5.562;2023-09-08T01:07:37;20.85;;;12.35;;
59512;SDS011;45330;51.634;5.562;2023-09-08T01:10:02;21.90;;;12.63;;
59512;SDS011;45330;51.634;5.562;2023-09-08T01:12:31;22.33;;;12.40;;
59512;SDS011;45330;51.634;5.562;2023-09-08T01:14:56;21.92;;;12.23;;
59512;SDS011;45330;51.634;5.562;2023-09-08T01:17:22;23.23;;;12.95;;
59512;SDS011;45330;51.634;5.562;2023-09-08T01:19:47;22.90;;;12.13;;
59512;SDS011;45330;51.634;5.562;2023-09-08T01:22:35;21.92;;;12.85;;
59512;SDS011;45330;51.634;5.562;2023-09-08T01:27:35;22.38;;;12.85;;
59512;SDS011;45330;51.634;5.562;2023-09-08T01:30:02;24.02;;;13.65;;
59512;SDS011;45330;51.634;5.562;2023-09-08T01:32:30;21.30;;;13.10;;
59512;SDS011;45330;51.634;5.562;2023-09-08T01:34:57;23.10;;;14.10;;
59512;SDS011;45330;51.634;5.562;2023-09-08T01:37:24;22.77;;;13.40;;
59512;SDS011;45330;51.634;5.562;2023-09-08T01:39:49;23.70;;;13.27;;
59512;SDS011;45330;51.634;5.562;2023-09-08T01:42:14;22.40;;;13.23;;
59512;SDS011;45330;51.634;5.562;2023-09-08T01:44:40;21.40;;;13.70;;
59512;SDS011;45330;51.634;5.562;2023-09-08T01:47:05;22.33;;;13.32;;
59512;SDS011;45330;51.634;5.562;2023-09-08T01:49:31;24.08;;;14.23;;
59512;SDS011;45330;51.634;5.562;2023-09-08T01:51:56;23.20;;;13.43;;
59512;SDS011;45330;51.634;5.562;2023-09-08T01:54:21;23.90;;;14.48;;
59512;SDS011;45330;51.634;5.562;2023-09-08T01:56:47;23.42;;;13.77;;
59512;SDS011;45330;51.634;5.562;2023-09-08T01:59:12;23.60;;;14.15;;
59512;SDS011;45330;51.634;5.562;2023-09-08T02:01:38;24.10;;;14.13;;
59512;SDS011;45330;51.634;5.562;2023-09-08T02:04:03;22.55;;;14.50;;
59512;SDS011;45330;51.634;5.562;2023-09-08T02:06:29;21.90;;;13.32;;
59512;SDS011;45330;51.634;5.562;2023-09-08T02:08:54;22.23;;;13.57;;
59512;SDS011;45330;51.634;5.562;2023-09-08T02:11:19;23.52;;;14.25;;
59512;SDS011;45330;51.634;5.562;2023-09-08T02:13:45;21.90;;;13.52;;
59512;SDS011;45330;51.634;5.562;2023-09-08T02:16:14;22.58;;;13.85;;
59512;SDS011;45330;51.634;5.562;2023-09-08T02:18:43;23.73;;;14.85;;
59512;SDS011;45330;51.634;5.562;2023-09-08T02:21:09;22.88;;;14.25;;
59512;SDS011;45330;51.634;5.562;2023-09-08T02:23:35;23.05;;;14.20;;
59512;SDS011;45330;51.634;5.562;2023-09-08T02:26:01;23.63;;;14.75;;
59512;SDS011;45330;51.634;5.562;2023-09-08T02:28:26;24.33;;;14.77;;
59512;SDS011;45330;51.634;5.562;2023-09-08T02:30:52;23.42;;;14.60;;
59512;SDS011;45330;51.634;5.562;2023-09-08T02:33:17;23.45;;;14.60;;
59512;SDS011;45330;51.634;5.562;2023-09-08T02:35:43;22.38;;;14.25;;
59512;SDS011;45330;51.634;5.562;2023-09-08T02:38:08;23.65;;;14.30;;
59512;SDS011;45330;51.634;5.562;2023-09-08T02:40:34;26.35;;;14.55;;
59512;SDS011;45330;51.634;5.562;2023-09-08T02:43:02;24.17;;;14.52;;
59512;SDS011;45330;51.634;5.562;2023-09-08T02:45:28;23.30;;;15.02;;
59512;SDS011;45330;51.634;5.562;2023-09-08T02:47:54;23.02;;;13.82;;
59512;SDS011;45330;51.634;5.562;2023-09-08T02:50:19;22.48;;;14.60;;
59512;SDS011;45330;51.634;5.562;2023-09-08T02:52:45;21.20;;;14.07;;
59512;SDS011;45330;51.634;5.562;2023-09-08T02:55:11;23.50;;;14.75;;
59512;SDS011;45330;51.634;5.562;2023-09-08T02:57:37;24.95;;;15.05;;
59512;SDS011;45330;51.634;5.562;2023-09-08T03:00:03;24.00;;;14.25;;
59512;SDS011;45330;51.634;5.562;2023-09-08T03:02:30;23.33;;;14.52;;
59512;SDS011;45330;51.634;5.562;2023-09-08T03:04:55;24.92;;;14.80;;
59512;SDS011;45330;51.634;5.562;2023-09-08T03:07:20;23.73;;;14.38;;
59512;SDS011;45330;51.634;5.562;2023-09-08T03:09:46;32.53;;;14.27;;
59512;SDS011;45330;51.634;5.562;2023-09-08T03:12:11;23.23;;;14.27;;
59512;SDS011;45330;51.634;5.562;2023-09-08T03:14:37;23.00;;;14.40;;
59512;SDS011;45330;51.634;5.562;2023-09-08T03:17:02;22.55;;;13.90;;
59512;SDS011;45330;51.634;5.562;2023-09-08T03:19:28;22.45;;;13.98;;
59512;SDS011;45330;51.634;5.562;2023-09-08T03:21:53;21.50;;;13.73;;
59512;SDS011;45330;51.634;5.562;2023-09-08T03:24:19;22.23;;;14.10;;
59512;SDS011;45330;51.634;5.562;2023-09-08T03:26:44;21.27;;;13.38;;
59512;SDS011;45330;51.634;5.562;2023-09-08T03:29:09;21.70;;;13.18;;
59512;SDS011;45330;51.634;5.562;2023-09-08T03:31:35;23.48;;;13.98;;
59512;SDS011;45330;51.634;5.562;2023-09-08T03:34:00;23.42;;;14.23;;
59512;SDS011;45330;51.634;5.562;2023-09-08T03:36:25;21.55;;;13.73;;
59512;SDS011;45330;51.634;5.562;2023-09-08T03:38:51;23.08;;;14.43;;
59512;SDS011;45330;51.634;5.562;2023-09-08T03:41:16;22.63;;;14.07;;
59512;SDS011;45330;51.634;5.562;2023-09-08T03:43:42;23.45;;;13.75;;
59512;SDS011;45330;51.634;5.562;2023-09-08T03:46:07;25.08;;;14.15;;
59512;SDS011;45330;51.634;5.562;2023-09-08T03:48:32;22.73;;;14.13;;
59512;SDS011;45330;51.634;5.562;2023-09-08T03:50:58;23.58;;;14.70;;
59512;SDS011;45330;51.634;5.562;2023-09-08T03:53:23;24.02;;;15.10;;
59512;SDS011;45330;51.634;5.562;2023-09-08T03:55:49;23.10;;;14.02;;
59512;SDS011;45330;51.634;5.562;2023-09-08T03:58:14;24.73;;;14.48;;
59512;SDS011;45330;51.634;5.562;2023-09-08T04:00:41;23.10;;;14.38;;
59512;SDS011;45330;51.634;5.562;2023-09-08T04:03:06;23.13;;;15.10;;
59512;SDS011;45330;51.634;5.562;2023-09-08T04:05:32;21.52;;;13.45;;
59512;SDS011;45330;51.634;5.562;2023-09-08T04:07:57;22.30;;;14.32;;
59512;SDS011;45330;51.634;5.562;2023-09-08T04:10:22;23.98;;;14.98;;
59512;SDS011;45330;51.634;5.562;2023-09-08T04:12:48;23.17;;;13.98;;
59512;SDS011;45330;51.634;5.562;2023-09-08T04:15:13;23.88;;;14.23;;
59512;SDS011;45330;51.634;5.562;2023-09-08T04:17:38;21.83;;;14.45;;
59512;SDS011;45330;51.634;5.562;2023-09-08T04:20:04;23.52;;;15.02;;
59512;SDS011;45330;51.634;5.562;2023-09-08T04:22:31;24.33;;;14.80;;
59512;SDS011;45330;51.634;5.562;2023-09-08T04:24:57;22.98;;;14.73;;
59512;SDS011;45330;51.634;5.562;2023-09-08T04:27:23;25.10;;;15.05;;
59512;SDS011;45330;51.634;5.562;2023-09-08T04:29:49;24.58;;;15.90;;
59512;SDS011;45330;51.634;5.562;2023-09-08T04:32:14;23.25;;;14.35;;
59512;SDS011;45330;51.634;5.562;2023-09-08T04:34:40;23.83;;;15.10;;
59512;SDS011;45330;51.634;5.562;2023-09-08T04:37:06;24.80;;;14.60;;
59512;SDS011;45330;51.634;5.562;2023-09-08T04:39:32;24.48;;;15.40;;
59512;SDS011;45330;51.634;5.562;2023-09-08T04:41:58;22.73;;;14.30;;
59512;SDS011;45330;51.634;5.562;2023-09-08T04:44:24;23.55;;;14.60;;
59512;SDS011;45330;51.634;5.562;2023-09-08T04:46:49;23.60;;;15.40;;
59512;SDS011;45330;51.634;5.562;2023-09-08T04:49:15;23.55;;;14.52;;
59512;SDS011;45330;51.634;5.562;2023-09-08T04:51:40;23.88;;;14.75;;
59512;SDS011;45330;51.634;5.562;2023-09-08T04:54:06;23.83;;;15.13;;
59512;SDS011;45330;51.634;5.562;2023-09-08T04:56:31;22.95;;;14.45;;
59512;SDS011;45330;51.634;5.562;2023-09-08T04:58:57;23.35;;;14.23;;
59512;SDS011;45330;51.634;5.562;2023-09-08T05:01:23;23.08;;;14.18;;
59512;SDS011;45330;51.634;5.562;2023-09-08T05:03:48;23.13;;;14.82;;
59512;SDS011;45330;51.634;5.562;2023-09-08T05:06:14;25.83;;;15.05;;
59512;SDS011;45330;51.634;5.562;2023-09-08T05:08:39;24.50;;;15.45;;
59512;SDS011;45330;51.634;5.562;2023-09-08T05:11:04;22.55;;;15.23;;
59512;SDS011;45330;51.634;5.562;2023-09-08T05:13:30;23.80;;;13.80;;
59512;SDS011;45330;51.634;5.562;2023-09-08T05:15:55;23.33;;;15.05;;
59512;SDS011;45330;51.634;5.562;2023-09-08T05:18:41;22.23;;;14.35;;
59512;SDS011;45330;51.634;5.562;2023-09-08T05:21:07;23.67;;;14.85;;
59512;SDS011;45330;51.634;5.562;2023-09-08T05:23:33;24.40;;;14.77;;
59512;SDS011;45330;51.634;5.562;2023-09-08T05:25:59;25.48;;;15.40;;
59512;SDS011;45330;51.634;5.562;2023-09-08T05:28:24;24.52;;;15.55;;
59512;SDS011;45330;51.634;5.562;2023-09-08T05:30:50;26.15;;;14.90;;
59512;SDS011;45330;51.634;5.562;2023-09-08T05:33:16;22.77;;;15.60;;
59512;SDS011;45330;51.634;5.562;2023-09-08T05:35:42;23.85;;;14.55;;
59512;SDS011;45330;51.634;5.562;2023-09-08T05:38:07;24.60;;;13.77;;
59512;SDS011;45330;51.634;5.562;2023-09-08T05:40:32;22.83;;;13.20;;
59512;SDS011;45330;51.634;5.562;2023-09-08T05:42:59;22.02;;;13.68;;
59512;SDS011;45330;51.634;5.562;2023-09-08T05:45:24;22.75;;;12.32;;
59512;SDS011;45330;51.634;5.562;2023-09-08T05:47:50;21.73;;;11.93;;
59512;SDS011;45330;51.634;5.562;2023-09-08T05:50:17;21.90;;;11.75;;
59512;SDS011;45330;51.634;5.562;2023-09-08T05:52:43;21.02;;;11.57;;
59512;SDS011;45330;51.634;5.562;2023-09-08T05:55:08;22.30;;;12.85;;
59512;SDS011;45330;51.634;5.562;2023-09-08T05:57:34;21.58;;;11.93;;
59512;SDS011;45330;51.634;5.562;2023-09-08T05:59:59;22.52;;;12.48;;
59512;SDS011;45330;51.634;5.562;2023-09-08T06:02:25;21.95;;;12.75;;
59512;SDS011;45330;51.634;5.562;2023-09-08T06:04:51;23.30;;;14.05;;
59512;SDS011;45330;51.634;5.562;2023-09-08T06:07:16;24.35;;;13.70;;
59512;SDS011;45330;51.634;5.562;2023-09-08T06:09:41;23.98;;;13.38;;
59512;SDS011;45330;51.634;5.562;2023-09-08T06:12:07;22.10;;;14.23;;
59512;SDS011;45330;51.634;5.562;2023-09-08T06:14:32;22.42;;;13.98;;
59512;SDS011;45330;51.634;5.562;2023-09-08T06:16:57;22.85;;;14.70;;
59512;SDS011;45330;51.634;5.562;2023-09-08T06:19:23;22.90;;;14.73;;
59512;SDS011;45330;51.634;5.562;2023-09-08T06:21:48;25.83;;;15.57;;
59512;SDS011;45330;51.634;5.562;2023-09-08T06:24:13;22.95;;;15.50;;
59512;SDS011;45330;51.634;5.562;2023-09-08T06:26:39;25.17;;;15.88;;
59512;SDS011;45330;51.634;5.562;2023-09-08T06:29:04;25.67;;;16.08;;
59512;SDS011;45330;51.634;5.562;2023-09-08T06:31:30;23.73;;;16.73;;
59512;SDS011;45330;51.634;5.562;2023-09-08T06:33:55;24.52;;;16.73;;
59512;SDS011;45330;51.634;5.562;2023-09-08T06:36:21;25.85;;;16.90;;
59512;SDS011;45330;51.634;5.562;2023-09-08T06:38:46;23.42;;;16.55;;
59512;SDS011;45330;51.634;5.562;2023-09-08T06:41:12;24.00;;;16.42;;
59512;SDS011;45330;51.634;5.562;2023-09-08T06:43:38;26.40;;;17.60;;
59512;SDS011;45330;51.634;5.562;2023-09-08T06:46:03;24.58;;;16.88;;
59512;SDS011;45330;51.634;5.562;2023-09-08T06:48:29;26.08;;;16.77;;
59512;SDS011;45330;51.634;5.562;2023-09-08T06:50:55;25.38;;;16.80;;
59512;SDS011;45330;51.634;5.562;2023-09-08T06:53:21;25.73;;;16.55;;
59512;SDS011;45330;51.634;5.562;2023-09-08T06:55:47;26.65;;;15.75;;
59512;SDS011;45330;51.634;5.562;2023-09-08T06:58:13;23.73;;;15.48;;
59512;SDS011;45330;51.634;5.562;2023-09-08T07:00:40;24.77;;;16.20;;
59512;SDS011;45330;51.634;5.562;2023-09-08T07:03:06;23.17;;;15.88;;
59512;SDS011;45330;51.634;5.562;2023-09-08T07:05:31;24.25;;;15.75;;
59512;SDS011;45330;51.634;5.562;2023-09-08T07:07:57;23.05;;;17.00;;
59512;SDS011;45330;51.634;5.562;2023-09-08T07:10:22;23.67;;;15.77;;
59512;SDS011;45330;51.634;5.562;2023-09-08T07:12:47;24.17;;;16.27;;
59512;SDS011;45330;51.634;5.562;2023-09-08T07:15:14;23.40;;;15.35;;
59512;SDS011;45330;51.634;5.562;2023-09-08T07:17:39;23.23;;;15.57;;
59512;SDS011;45330;51.634;5.562;2023-09-08T07:20:05;25.23;;;15.32;;
59512;SDS011;45330;51.634;5.562;2023-09-08T07:22:31;24.27;;;16.70;;
59512;SDS011;45330;51.634;5.562;2023-09-08T07:24:56;24.17;;;15.90;;
59512;SDS011;45330;51.634;5.562;2023-09-08T07:27:21;24.27;;;15.45;;
59512;SDS011;45330;51.634;5.562;2023-09-08T07:29:47;23.20;;;16.15;;
59512;SDS011;45330;51.634;5.562;2023-09-08T07:32:14;23.35;;;15.75;;
59512;SDS011;45330;51.634;5.562;2023-09-08T07:34:40;23.05;;;15.07;;
59512;SDS011;45330;51.634;5.562;2023-09-08T07:37:06;23.13;;;15.00;;
59512;SDS011;45330;51.634;5.562;2023-09-08T07:39:31;24.65;;;15.90;;
59512;SDS011;45330;51.634;5.562;2023-09-08T07:41:58;23.05;;;15.27;;
59512;SDS011;45330;51.634;5.562;2023-09-08T07:44:23;24.98;;;16.20;;
59512;SDS011;45330;51.634;5.562;2023-09-08T07:46:49;24.92;;;15.38;;
59512;SDS011;45330;51.634;5.562;2023-09-08T07:49:16;25.15;;;15.82;;
59512;SDS011;45330;51.634;5.562;2023-09-08T07:51:44;24.75;;;14.88;;
59512;SDS011;45330;51.634;5.562;2023-09-08T07:54:10;23.92;;;15.52;;
59512;SDS011;45330;51.634;5.562;2023-09-08T07:56:35;22.92;;;14.75;;
59512;SDS011;45330;51.634;5.562;2023-09-08T07:59:00;22.73;;;15.27;;
59512;SDS011;45330;51.634;5.562;2023-09-08T08:01:26;24.92;;;14.90;;
59512;SDS011;45330;51.634;5.562;2023-09-08T08:03:51;23.50;;;15.18;;
59512;SDS011;45330;51.634;5.562;2023-09-08T08:06:16;23.27;;;13.75;;
59512;SDS011;45330;51.634;5.562;2023-09-08T08:08:42;22.33;;;13.70;;
59512;SDS011;45330;51.634;5.562;2023-09-08T08:11:14;22.40;;;13.20;;
59512;SDS011;45330;51.634;5.562;2023-09-08T08:13:42;22.40;;;13.57;;
59512;SDS011;45330;51.634;5.562;2023-09-08T08:16:08;24.02;;;13.23;;
59512;SDS011;45330;51.634;5.562;2023-09-08T08:18:33;21.73;;;13.23;;
59512;SDS011;45330;51.634;5.562;2023-09-08T08:20:58;24.27;;;14.63;;
59512;SDS011;45330;51.634;5.562;2023-09-08T08:23:25;21.70;;;12.50;;
59512;SDS011;45330;51.634;5.562;2023-09-08T08:25:51;23.25;;;13.93;;
59512;SDS011;45330;51.634;5.562;2023-09-08T08:28:16;21.80;;;13.18;;
59512;SDS011;45330;51.634;5.562;2023-09-08T08:30:42;21.15;;;11.85;;
59512;SDS011;45330;51.634;5.562;2023-09-08T08:33:07;20.20;;;12.25;;
59512;SDS011;45330;51.634;5.562;2023-09-08T08:35:32;21.35;;;11.77;;
59512;SDS011;45330;51.634;5.562;2023-09-08T08:37:58;21.23;;;12.57;;
59512;SDS011;45330;51.634;5.562;2023-09-08T08:40:27;20.23;;;11.48;;
59512;SDS011;45330;51.634;5.562;2023-09-08T08:42:54;21.42;;;12.05;;
59512;SDS011;45330;51.634;5.562;2023-09-08T08:45:20;19.63;;;10.95;;
59512;SDS011;45330;51.634;5.562;2023-09-08T08:47:49;21.25;;;11.32;;
59512;SDS011;45330;51.634;5.562;2023-09-08T08:50:14;20.40;;;11.65;;
59512;SDS011;45330;51.634;5.562;2023-09-08T08:52:42;21.10;;;11.27;;
59512;SDS011;45330;51.634;5.562;2023-09-08T08:55:07;20.83;;;10.60;;
59512;SDS011;45330;51.634;5.562;2023-09-08T08:57:33;20.08;;;10.80;;
59512;SDS011;45330;51.634;5.562;2023-09-08T08:59:59;22.45;;;11.57;;
59512;SDS011;45330;51.634;5.562;2023-09-08T09:02:25;21.42;;;11.20;;
59512;SDS011;45330;51.634;5.562;2023-09-08T09:04:54;20.70;;;11.52;;
59512;SDS011;45330;51.634;5.562;2023-09-08T09:07:19;21.10;;;10.13;;
59512;SDS011;45330;51.634;5.562;2023-09-08T09:09:46;19.77;;;9.15;;
59512;SDS011;45330;51.634;5.562;2023-09-08T09:12:11;17.92;;;8.70;;
59512;SDS011;45330;51.634;5.562;2023-09-08T09:14:37;18.48;;;8.90;;
59512;SDS011;45330;51.634;5.562;2023-09-08T09:17:03;18.15;;;7.95;;
59512;SDS011;45330;51.634;5.562;2023-09-08T09:19:30;19.92;;;9.07;;
59512;SDS011;45330;51.634;5.562;2023-09-08T09:21:57;17.30;;;8.20;;
59512;SDS011;45330;51.634;5.562;2023-09-08T09:24:30;17.83;;;8.48;;
59512;SDS011;45330;51.634;5.562;2023-09-08T09:26:58;17.63;;;8.20;;
59512;SDS011;45330;51.634;5.562;2023-09-08T09:29:24;16.70;;;8.57;;
59512;SDS011;45330;51.634;5.562;2023-09-08T09:31:50;16.73;;;8.50;;
59512;SDS011;45330;51.634;5.562;2023-09-08T09:34:17;16.35;;;8.20;;
59512;SDS011;45330;51.634;5.562;2023-09-08T09:36:43;17.52;;;8.35;;
59512;SDS011;45330;51.634;5.562;2023-09-08T09:39:10;17.02;;;7.85;;
59512;SDS011;45330;51.634;5.562;2023-09-08T09:41:36;17.23;;;8.25;;
59512;SDS011;45330;51.634;5.562;2023-09-08T09:44:02;16.58;;;7.97;;
59512;SDS011;45330;51.634;5.562;2023-09-08T09:46:29;16.40;;;8.07;;
59512;SDS011;45330;51.634;5.562;2023-09-08T09:48:54;15.50;;;7.60;;
59512;SDS011;45330;51.634;5.562;2023-09-08T09:51:23;16.45;;;7.95;;
59512;SDS011;45330;51.634;5.562;2023-09-08T09:53:51;18.15;;;7.75;;
59512;SDS011;45330;51.634;5.562;2023-09-08T09:56:17;16.58;;;7.53;;
59512;SDS011;45330;51.634;5.562;2023-09-08T09:58:44;15.90;;;7.80;;
59512;SDS011;45330;51.634;5.562;2023-09-08T10:01:10;16.88;;;8.18;;
59512;SDS011;45330;51.634;5.562;2023-09-08T10:03:38;16.42;;;7.68;;
59512;SDS011;45330;51.634;5.562;2023-09-08T10:06:04;15.35;;;7.63;;
59512;SDS011;45330;51.634;5.562;2023-09-08T10:08:31;15.00;;;6.88;;
59512;SDS011;45330;51.634;5.562;2023-09-08T10:13:30;16.77;;;7.43;;
59512;SDS011;45330;51.634;5.562;2023-09-08T10:15:58;16.42;;;7.18;;
59512;SDS011;45330;51.634;5.562;2023-09-08T10:18:26;16.52;;;7.20;;
59512;SDS011;45330;51.634;5.562;2023-09-08T10:20:53;17.85;;;8.70;;
59512;SDS011;45330;51.634;5.562;2023-09-08T10:26:02;18.67;;;9.10;;
59512;SDS011;45330;51.634;5.562;2023-09-08T10:28:31;19.83;;;9.60;;
59512;SDS011;45330;51.634;5.562;2023-09-08T10:30:57;16.50;;;8.25;;
59512;SDS011;45330;51.634;5.562;2023-09-08T10:33:23;18.00;;;9.02;;
59512;SDS011;45330;51.634;5.562;2023-09-08T10:35:50;20.52;;;10.23;;
59512;SDS011;45330;51.634;5.562;2023-09-08T10:38:23;21.60;;;10.75;;
59512;SDS011;45330;51.634;5.562;2023-09-08T10:41:25;18.48;;;10.00;;
59512;SDS011;45330;51.634;5.562;2023-09-08T10:43:42;20.40;;;9.90;;
59512;SDS011;45330;51.634;5.562;2023-09-08T10:46:08;19.27;;;9.77;;
59512;SDS011;45330;51.634;5.562;2023-09-08T10:48:43;18.67;;;8.93;;
59512;SDS011;45330;51.634;5.562;2023-09-08T10:51:12;18.55;;;9.55;;
59512;SDS011;45330;51.634;5.562;2023-09-08T10:53:39;18.20;;;8.93;;
59512;SDS011;45330;51.634;5.562;2023-09-08T10:56:05;19.75;;;8.70;;
59512;SDS011;45330;51.634;5.562;2023-09-08T10:58:34;16.80;;;8.65;;
59512;SDS011;45330;51.634;5.562;2023-09-08T11:01:12;18.77;;;8.98;;
59512;SDS011;45330;51.634;5.562;2023-09-08T11:06:05;16.45;;;7.35;;
59512;SDS011;45330;51.634;5.562;2023-09-08T11:08:32;14.00;;;6.85;;
59512;SDS011;45330;51.634;5.562;2023-09-08T11:10:58;16.20;;;6.95;;
59512;SDS011;45330;51.634;5.562;2023-09-08T11:13:25;13.23;;;6.05;;
59512;SDS011;45330;51.634;5.562;2023-09-08T11:15:54;17.40;;;6.50;;
59512;SDS011;45330;51.634;5.562;2023-09-08T11:18:30;14.10;;;6.45;;
59512;SDS011;45330;51.634;5.562;2023-09-08T11:20:56;14.82;;;7.10;;
59512;SDS011;45330;51.634;5.562;2023-09-08T11:23:23;15.15;;;6.63;;
59512;SDS011;45330;51.634;5.562;2023-09-08T11:25:49;14.88;;;6.18;;
59512;SDS011;45330;51.634;5.562;2023-09-08T11:28:19;16.20;;;7.13;;
59512;SDS011;45330;51.634;5.562;2023-09-08T11:30:47;13.82;;;6.28;;
59512;SDS011;45330;51.634;5.562;2023-09-08T11:33:16;14.27;;;6.13;;
59512;SDS011;45330;51.634;5.562;2023-09-08T11:35:47;14.40;;;5.97;;
59512;SDS011;45330;51.634;5.562;2023-09-08T11:38:13;15.43;;;6.50;;
59512;SDS011;45330;51.634;5.562;2023-09-08T11:40:39;14.63;;;6.13;;
59512;SDS011;45330;51.634;5.562;2023-09-08T11:43:05;12.25;;;5.72;;
59512;SDS011;45330;51.634;5.562;2023-09-08T11:45:33;12.98;;;5.72;;
59512;SDS011;45330;51.634;5.562;2023-09-08T11:47:59;14.77;;;5.88;;
59512;SDS011;45330;51.634;5.562;2023-09-08T11:50:25;13.57;;;6.50;;
59512;SDS011;45330;51.634;5.562;2023-09-08T11:52:51;14.50;;;6.68;;
59512;SDS011;45330;51.634;5.562;2023-09-08T11:55:18;14.98;;;6.80;;
59512;SDS011;45330;51.634;5.562;2023-09-08T11:57:48;14.52;;;6.85;;
59512;SDS011;45330;51.634;5.562;2023-09-08T12:00:16;13.60;;;6.05;;
59512;SDS011;45330;51.634;5.562;2023-09-08T12:02:43;14.98;;;6.65;;
59512;SDS011;45330;51.634;5.562;2023-09-08T12:05:13;13.70;;;6.05;;
59512;SDS011;45330;51.634;5.562;2023-09-08T12:07:53;15.02;;;6.55;;
59512;SDS011;45330;51.634;5.562;2023-09-08T12:10:20;14.85;;;6.30;;
59512;SDS011;45330;51.634;5.562;2023-09-08T12:12:48;16.85;;;6.00;;
59512;SDS011;45330;51.634;5.562;2023-09-08T12:18:03;14.00;;;6.43;;
59512;SDS011;45330;51.634;5.562;2023-09-08T12:20:30;14.30;;;6.60;;
59512;SDS011;45330;51.634;5.562;2023-09-08T12:22:58;12.23;;;5.80;;
59512;SDS011;45330;51.634;5.562;2023-09-08T12:25:26;15.55;;;6.15;;
59512;SDS011;45330;51.634;5.562;2023-09-08T12:27:53;13.20;;;5.90;;
59512;SDS011;45330;51.634;5.562;2023-09-08T12:30:19;12.38;;;5.35;;
59512;SDS011;45330;51.634;5.562;2023-09-08T12:32:47;13.52;;;5.78;;
59512;SDS011;45330;51.634;5.562;2023-09-08T12:35:19;13.82;;;5.50;;
59512;SDS011;45330;51.634;5.562;2023-09-08T12:37:47;11.23;;;5.30;;
59512;SDS011;45330;51.634;5.562;2023-09-08T12:40:16;11.48;;;4.82;;
59512;SDS011;45330;51.634;5.562;2023-09-08T12:42:42;11.23;;;5.00;;
59512;SDS011;45330;51.634;5.562;2023-09-08T12:45:08;12.65;;;5.32;;
59512;SDS011;45330;51.634;5.562;2023-09-08T12:47:33;11.40;;;4.78;;
59512;SDS011;45330;51.634;5.562;2023-09-08T12:50:00;11.80;;;5.00;;
59512;SDS011;45330;51.634;5.562;2023-09-08T12:52:26;12.20;;;5.05;;
59512;SDS011;45330;51.634;5.562;2023-09-08T12:54:51;13.18;;;5.13;;
59512;SDS011;45330;51.634;5.562;2023-09-08T12:57:17;10.30;;;4.90;;
59512;SDS011;45330;51.634;5.562;2023-09-08T12:59:42;12.50;;;5.10;;
59512;SDS011;45330;51.634;5.562;2023-09-08T13:02:08;13.00;;;4.97;;
59512;SDS011;45330;51.634;5.562;2023-09-08T13:04:33;11.80;;;4.90;;
59512;SDS011;45330;51.634;5.562;2023-09-08T13:06:58;14.98;;;4.93;;
59512;SDS011;45330;51.634;5.562;2023-09-08T13:09:26;10.05;;;5.07;;
59512;SDS011;45330;51.634;5.562;2023-09-08T13:11:51;12.77;;;5.47;;
59512;SDS011;45330;51.634;5.562;2023-09-08T13:14:17;10.45;;;4.95;;
59512;SDS011;45330;51.634;5.562;2023-09-08T13:16:42;13.52;;;5.10;;
59512;SDS011;45330;51.634;5.562;2023-09-08T13:19:07;14.90;;;5.22;;
59512;SDS011;45330;51.634;5.562;2023-09-08T13:21:33;10.95;;;4.88;;
59512;SDS011;45330;51.634;5.562;2023-09-08T13:23:58;10.77;;;5.03;;
59512;SDS011;45330;51.634;5.562;2023-09-08T13:26:24;14.48;;;5.30;;
59512;SDS011;45330;51.634;5.562;2023-09-08T13:28:49;11.40;;;5.10;;
59512;SDS011;45330;51.634;5.562;2023-09-08T13:31:14;11.88;;;5.28;;
59512;SDS011;45330;51.634;5.562;2023-09-08T13:33:40;11.93;;;5.10;;
59512;SDS011;45330;51.634;5.562;2023-09-08T13:36:05;13.57;;;5.03;;
59512;SDS011;45330;51.634;5.562;2023-09-08T13:38:31;10.52;;;4.95;;
59512;SDS011;45330;51.634;5.562;2023-09-08T13:40:56;11.13;;;4.70;;
59512;SDS011;45330;51.634;5.562;2023-09-08T13:43:21;10.52;;;4.97;;
59512;SDS011;45330;51.634;5.562;2023-09-08T13:45:47;12.85;;;4.90;;
59512;SDS011;45330;51.634;5.562;2023-09-08T13:48:12;9.88;;;5.00;;
59512;SDS011;45330;51.634;5.562;2023-09-08T13:50:38;11.90;;;5.00;;
59512;SDS011;45330;51.634;5.562;2023-09-08T13:53:04;14.77;;;4.82;;
59512;SDS011;45330;51.634;5.562;2023-09-08T13:55:30;11.73;;;4.93;;
59512;SDS011;45330;51.634;5.562;2023-09-08T13:57:55;11.52;;;4.85;;
59512;SDS011;45330;51.634;5.562;2023-09-08T14:00:20;10.57;;;4.90;;
59512;SDS011;45330;51.634;5.562;2023-09-08T14:02:46;11.10;;;4.85;;
59512;SDS011;45330;51.634;5.562;2023-09-08T14:05:12;11.05;;;5.22;;
59512;SDS011;45330;51.634;5.562;2023-09-08T14:07:37;12.25;;;4.75;;
59512;SDS011;45330;51.634;5.562;2023-09-08T14:10:02;11.32;;;4.95;;
59512;SDS011;45330;51.634;5.562;2023-09-08T14:12:32;13.88;;;4.80;;
59512;SDS011;45330;51.634;5.562;2023-09-08T14:14:58;12.95;;;5.03;;
59512;SDS011;45330;51.634;5.562;2023-09-08T14:17:23;11.60;;;4.78;;
59512;SDS011;45330;51.634;5.562;2023-09-08T14:19:49;10.75;;;4.43;;
59512;SDS011;45330;51.634;5.562;2023-09-08T14:22:14;12.82;;;4.95;;
59512;SDS011;45330;51.634;5.562;2023-09-08T14:24:39;11.13;;;4.40;;
59512;SDS011;45330;51.634;5.562;2023-09-08T14:27:05;12.57;;;4.65;;
59512;SDS011;45330;51.634;5.562;2023-09-08T14:29:32;10.73;;;5.25;;
59512;SDS011;45330;51.634;5.562;2023-09-08T14:31:59;13.55;;;5.10;;
59512;SDS011;45330;51.634;5.562;2023-09-08T14:34:24;11.50;;;5.07;;